sensor_id;sensor_type;location;lat;lon;timestamp;P1;durP1;ratioP1;P2;durP2;ratioP2
22017;SDS011;11173;51.050;7.108;2023-06-22T00:00:17;2.03;;;1.92;;
22017;SDS011;11173;51.050;7.108;2023-06-22T00:10:18;2.08;;;1.98;;
22017;SDS011;11173;51.050;7.108;2023-06-22T00:20:18;1.88;;;1.77;;
22017;SDS011;11173;51.050;7.108;2023-06-22T00:30:19;1.65;;;1.55;;
22017;SDS011;11173;51.050;7.108;2023-06-22T00:40:19;1.88;;;1.77;;
22017;SDS011;11173;51.050;7.108;2023-06-22T00:50:22;2.58;;;2.08;;
22017;SDS011;11173;51.050;7.108;2023-06-22T01:00:24;2.05;;;1.77;;
22017;SDS011;11173;51.050;7.108;2023-06-22T01:10:27;1.70;;;1.60;;
22017;SDS011;11173;51.050;7.108;2023-06-22T01:20:41;2.33;;;1.73;;
22017;SDS011;11173;51.050;7.108;2023-06-22T01:30:42;1.48;;;1.38;;
22017;SDS011;11173;51.050;7.108;2023-06-22T01:40:45;2.15;;;1.98;;
22017;SDS011;11173;51.050;7.108;2023-06-22T01:50:46;1.70;;;1.60;;
22017;SDS011;11173;51.050;7.108;2023-06-22T02:00:48;2.50;;;1.95;;
22017;SDS011;11173;51.050;7.108;2023-06-22T02:10:57;2.08;;;1.92;;
22017;SDS011;11173;51.050;7.108;2023-06-22T02:21:00;2.53;;;1.58;;
22017;SDS011;11173;51.050;7.108;2023-06-22T02:31:01;1.77;;;1.67;;
22017;SDS011;11173;51.050;7.108;2023-06-22T02:41:01;2.08;;;1.98;;
22017;SDS011;11173;51.050;7.108;2023-06-22T02:51:02;2.10;;;1.95;;
22017;SDS011;11173;51.050;7.108;2023-06-22T03:01:02;1.90;;;1.80;;
22017;SDS011;11173;51.050;7.108;2023-06-22T03:11:04;1.35;;;1.25;;
22017;SDS011;11173;51.050;7.108;2023-06-22T03:21:05;1.70;;;1.60;;
22017;SDS011;11173;51.050;7.108;2023-06-22T03:31:05;1.67;;;1.58;;
22017;SDS011;11173;51.050;7.108;2023-06-22T03:41:06;2.55;;;2.15;;
22017;SDS011;11173;51.050;7.108;2023-06-22T03:51:07;1.65;;;1.55;;
22017;SDS011;11173;51.050;7.108;2023-06-22T04:01:07;1.17;;;1.08;;
22017;SDS011;11173;51.050;7.108;2023-06-22T04:11:11;1.80;;;1.58;;
22017;SDS011;11173;51.050;7.108;2023-06-22T04:21:11;2.47;;;2.33;;
22017;SDS011;11173;51.050;7.108;2023-06-22T04:31:13;1.77;;;1.67;;
22017;SDS011;11173;51.050;7.108;2023-06-22T04:41:13;2.20;;;2.10;;
22017;SDS011;11173;51.050;7.108;2023-06-22T04:51:23;2.15;;;2.05;;
22017;SDS011;11173;51.050;7.108;2023-06-22T05:01:29;2.35;;;2.25;;
22017;SDS011;11173;51.050;7.108;2023-06-22T05:11:35;2.58;;;2.25;;
22017;SDS011;11173;51.050;7.108;2023-06-22T05:21:35;3.00;;;2.80;;
22017;SDS011;11173;51.050;7.108;2023-06-22T05:31:36;3.30;;;3.10;;
22017;SDS011;11173;51.050;7.108;2023-06-22T05:41:36;2.75;;;2.55;;
22017;SDS011;11173;51.050;7.108;2023-06-22T05:51:36;2.30;;;2.20;;
22017;SDS011;11173;51.050;7.108;2023-06-22T06:01:37;1.10;;;1.10;;
22017;SDS011;11173;51.050;7.108;2023-06-22T06:11:37;2.10;;;2.00;;
22017;SDS011;11173;51.050;7.108;2023-06-22T06:21:38;2.38;;;2.17;;
22017;SDS011;11173;51.050;7.108;2023-06-22T06:31:38;2.08;;;1.98;;
22017;SDS011;11173;51.050;7.108;2023-06-22T06:41:39;1.40;;;1.30;;
22017;SDS011;11173;51.050;7.108;2023-06-22T06:51:39;2.08;;;1.98;;
22017;SDS011;11173;51.050;7.108;2023-06-22T07:01:39;2.13;;;1.92;;
22017;SDS011;11173;51.050;7.108;2023-06-22T07:11:40;2.17;;;2.08;;
22017;SDS011;11173;51.050;7.108;2023-06-22T07:21:40;2.20;;;2.10;;
22017;SDS011;11173;51.050;7.108;2023-06-22T07:31:40;2.70;;;2.60;;
22017;SDS011;11173;51.050;7.108;2023-06-22T07:41:41;2.50;;;2.30;;
22017;SDS011;11173;51.050;7.108;2023-06-22T07:51:41;2.75;;;2.55;;
22017;SDS011;11173;51.050;7.108;2023-06-22T08:01:42;5.57;;;3.08;;
22017;SDS011;11173;51.050;7.108;2023-06-22T08:11:42;3.65;;;3.35;;
22017;SDS011;11173;51.050;7.108;2023-06-22T08:21:43;2.78;;;2.58;;
22017;SDS011;11173;51.050;7.108;2023-06-22T08:31:43;3.03;;;2.83;;
22017;SDS011;11173;51.050;7.108;2023-06-22T08:41:43;3.70;;;3.40;;
22017;SDS011;11173;51.050;7.108;2023-06-22T08:51:45;3.25;;;3.05;;
22017;SDS011;11173;51.050;7.108;2023-06-22T09:01:47;4.35;;;3.95;;
22017;SDS011;11173;51.050;7.108;2023-06-22T09:11:48;4.82;;;3.83;;
22017;SDS011;11173;51.050;7.108;2023-06-22T09:21:49;3.10;;;2.45;;
22017;SDS011;11173;51.050;7.108;2023-06-22T09:31:49;3.28;;;2.97;;
22017;SDS011;11173;51.050;7.108;2023-06-22T09:41:49;2.47;;;2.38;;
22017;SDS011;11173;51.050;7.108;2023-06-22T09:51:51;2.90;;;2.70;;
22017;SDS011;11173;51.050;7.108;2023-06-22T10:01:52;2.17;;;2.00;;
22017;SDS011;11173;51.050;7.108;2023-06-22T10:11:52;2.83;;;2.63;;
22017;SDS011;11173;51.050;7.108;2023-06-22T10:21:53;2.40;;;2.28;;
22017;SDS011;11173;51.050;7.108;2023-06-22T10:31:54;2.30;;;2.10;;
22017;SDS011;11173;51.050;7.108;2023-06-22T10:41:54;1.10;;;1.10;;
22017;SDS011;11173;51.050;7.108;2023-06-22T10:51:56;0.68;;;0.65;;
22017;SDS011;11173;51.050;7.108;2023-06-22T11:01:56;0.70;;;0.70;;
22017;SDS011;11173;51.050;7.108;2023-06-22T11:11:57;2.83;;;2.63;;
22017;SDS011;11173;51.050;7.108;2023-06-22T11:21:59;2.95;;;2.75;;
22017;SDS011;11173;51.050;7.108;2023-06-22T11:31:59;2.03;;;1.92;;
22017;SDS011;11173;51.050;7.108;2023-06-22T11:41:59;2.80;;;2.60;;
22017;SDS011;11173;51.050;7.108;2023-06-22T11:52:00;5.30;;;4.80;;
22017;SDS011;11173;51.050;7.108;2023-06-22T12:02:00;6.93;;;4.40;;
22017;SDS011;11173;51.050;7.108;2023-06-22T12:12:00;6.90;;;6.20;;
22017;SDS011;11173;51.050;7.108;2023-06-22T12:22:01;5.30;;;4.90;;
22017;SDS011;11173;51.050;7.108;2023-06-22T12:32:01;5.78;;;5.28;;
22017;SDS011;11173;51.050;7.108;2023-06-22T12:42:02;4.55;;;4.15;;
22017;SDS011;11173;51.050;7.108;2023-06-22T12:52:03;4.20;;;3.80;;
22017;SDS011;11173;51.050;7.108;2023-06-22T13:02:08;4.00;;;3.60;;
22017;SDS011;11173;51.050;7.108;2023-06-22T13:12:08;3.45;;;3.10;;
22017;SDS011;11173;51.050;7.108;2023-06-22T13:22:28;2.67;;;2.35;;
22017;SDS011;11173;51.050;7.108;2023-06-22T13:32:29;1.83;;;1.73;;
22017;SDS011;11173;51.050;7.108;2023-06-22T13:42:29;2.00;;;1.90;;
22017;SDS011;11173;51.050;7.108;2023-06-22T13:52:30;1.80;;;1.70;;
22017;SDS011;11173;51.050;7.108;2023-06-22T14:02:30;2.10;;;2.00;;
22017;SDS011;11173;51.050;7.108;2023-06-22T14:12:31;2.63;;;2.20;;
22017;SDS011;11173;51.050;7.108;2023-06-22T14:22:31;1.45;;;1.35;;
22017;SDS011;11173;51.050;7.108;2023-06-22T14:32:31;2.22;;;2.13;;
22017;SDS011;11173;51.050;7.108;2023-06-22T14:42:32;2.45;;;2.30;;
22017;SDS011;11173;51.050;7.108;2023-06-22T14:52:32;2.58;;;2.38;;
22017;SDS011;11173;51.050;7.108;2023-06-22T15:02:33;3.45;;;3.15;;
22017;SDS011;11173;51.050;7.108;2023-06-22T15:12:33;2.92;;;2.70;;
22017;SDS011;11173;51.050;7.108;2023-06-22T15:22:33;3.00;;;2.70;;
22017;SDS011;11173;51.050;7.108;2023-06-22T15:32:34;3.80;;;3.50;;
22017;SDS011;11173;51.050;7.108;2023-06-22T15:42:34;3.63;;;3.33;;
22017;SDS011;11173;51.050;7.108;2023-06-22T15:52:35;8.80;;;4.47;;
22017;SDS011;11173;51.050;7.108;2023-06-22T16:02:35;5.63;;;4.95;;
22017;SDS011;11173;51.050;7.108;2023-06-22T16:12:36;5.40;;;4.97;;
22017;SDS011;11173;51.050;7.108;2023-06-22T16:22:36;4.68;;;4.28;;
22017;SDS011;11173;51.050;7.108;2023-06-22T16:32:37;5.47;;;5.07;;
22017;SDS011;11173;51.050;7.108;2023-06-22T16:42:37;6.25;;;5.78;;
22017;SDS011;11173;51.050;7.108;2023-06-22T16:52:38;5.63;;;4.72;;
22017;SDS011;11173;51.050;7.108;2023-06-22T17:02:39;6.30;;;5.70;;
22017;SDS011;11173;51.050;7.108;2023-06-22T17:12:51;4.95;;;4.28;;
22017;SDS011;11173;51.050;7.108;2023-06-22T17:22:51;2.72;;;1.75;;
22017;SDS011;11173;51.050;7.108;2023-06-22T17:32:53;2.75;;;2.50;;
22017;SDS011;11173;51.050;7.108;2023-06-22T17:43:03;2.60;;;2.40;;
22017;SDS011;11173;51.050;7.108;2023-06-22T17:53:08;1.63;;;1.52;;
22017;SDS011;11173;51.050;7.108;2023-06-22T18:03:10;2.00;;;1.83;;
22017;SDS011;11173;51.050;7.108;2023-06-22T18:13:12;0.85;;;0.85;;
22017;SDS011;11173;51.050;7.108;2023-06-22T18:23:14;0.98;;;0.90;;
22017;SDS011;11173;51.050;7.108;2023-06-22T18:33:18;0.85;;;0.85;;
22017;SDS011;11173;51.050;7.108;2023-06-22T18:43:23;0.77;;;0.77;;
22017;SDS011;11173;51.050;7.108;2023-06-22T19:03:30;1.48;;;1.33;;
22017;SDS011;11173;51.050;7.108;2023-06-22T19:13:31;1.35;;;1.27;;
22017;SDS011;11173;51.050;7.108;2023-06-22T19:23:36;2.20;;;2.10;;
22017;SDS011;11173;51.050;7.108;2023-06-22T19:33:38;1.70;;;1.60;;
22017;SDS011;11173;51.050;7.108;2023-06-22T19:43:39;6.88;;;6.28;;
22017;SDS011;11173;51.050;7.108;2023-06-22T19:53:42;1.65;;;1.55;;
22017;SDS011;11173;51.050;7.108;2023-06-22T20:03:43;1.75;;;1.65;;
22017;SDS011;11173;51.050;7.108;2023-06-22T20:13:55;1.98;;;1.88;;
22017;SDS011;11173;51.050;7.108;2023-06-22T20:24:01;2.42;;;2.20;;
22017;SDS011;11173;51.050;7.108;2023-06-22T20:34:03;2.58;;;2.47;;
22017;SDS011;11173;51.050;7.108;2023-06-22T20:44:03;2.83;;;2.63;;
22017;SDS011;11173;51.050;7.108;2023-06-22T20:54:05;3.00;;;2.80;;
22017;SDS011;11173;51.050;7.108;2023-06-22T21:04:05;3.10;;;2.90;;
22017;SDS011;11173;51.050;7.108;2023-06-22T21:14:06;5.00;;;4.60;;
22017;SDS011;11173;51.050;7.108;2023-06-22T21:24:06;5.38;;;4.90;;
22017;SDS011;11173;51.050;7.108;2023-06-22T21:34:07;8.23;;;3.80;;
22017;SDS011;11173;51.050;7.108;2023-06-22T21:44:07;4.40;;;4.07;;
22017;SDS011;11173;51.050;7.108;2023-06-22T21:54:08;5.10;;;4.60;;
22017;SDS011;11173;51.050;7.108;2023-06-22T22:04:08;5.88;;;5.32;;
22017;SDS011;11173;51.050;7.108;2023-06-22T22:14:08;6.13;;;5.63;;
22017;SDS011;11173;51.050;7.108;2023-06-22T22:24:09;5.43;;;4.93;;
22017;SDS011;11173;51.050;7.108;2023-06-22T22:34:10;4.65;;;4.30;;
22017;SDS011;11173;51.050;7.108;2023-06-22T22:44:10;5.22;;;4.72;;
22017;SDS011;11173;51.050;7.108;2023-06-22T22:54:10;4.93;;;4.53;;
22017;SDS011;11173;51.050;7.108;2023-06-22T23:04:11;4.30;;;4.00;;
22017;SDS011;11173;51.050;7.108;2023-06-22T23:14:11;4.72;;;4.35;;
22017;SDS011;11173;51.050;7.108;2023-06-22T23:24:12;5.72;;;5.32;;
22017;SDS011;11173;51.050;7.108;2023-06-22T23:34:15;5.88;;;5.38;;
22017;SDS011;11173;51.050;7.108;2023-06-22T23:44:15;7.95;;;7.25;;
22017;SDS011;11173;51.050;7.108;2023-06-22T23:54:16;7.75;;;7.05;;
